»·PEaware :: N681DW KBFL-KMHV

N681DW :: KBFL-KMHV

FLIGHT INFORMATION

Flight Status: Arrived
Operator: Privately registered:
United States
More flights under this callsign
Pilot: David D. (7607)
Aircraft: PIPER PA-28 CHEROKEE ARCHER
(PA28)
More flights by this aircraft type
Origin: KBFL Meadows
United States
Destination: KMHV Mojave
United States
More flights between these airports :: More routes between these airports
Route: DIRECT
File this flight plan on PilotEdge
Remarks: CAT6
Altitude:
(Current/Filed)
7,500ft
Speed:
(Current/Filed)
140kts
Departed: 27-Dec-17 04:35 PM
Arrived: 27-Dec-17 05:06 PM
Distance/Time
Traveled:
50nm/0:31
Distance/Time
To Go:
Arrived

Flight Plot

Page will automatically refresh every two minutes.


Map Options




Map Legend


Flown Route
Filed Route
Departure Airport
Arrival Airport
Navaid (VOR, NDB)
Fix

Horizontal Profiles

Position Reports

Time Latitude Longitude Heading Altitude Ground
Speed
27-Dec-17 16:20 35.429371 -119.046101 226 493ft 0kts
27-Dec-17 16:21 35.429371 -119.046101 226 493ft 0kts
27-Dec-17 16:22 35.429371 -119.046101 226 493ft 0kts
27-Dec-17 16:23 35.429371 -119.046101 226 493ft 0kts
27-Dec-17 16:24 35.429371 -119.046101 226 493ft 0kts
27-Dec-17 16:25 35.429371 -119.046101 226 493ft 0kts
27-Dec-17 16:26 35.429371 -119.046101 226 493ft 0kts
27-Dec-17 16:27 35.429371 -119.046101 226 493ft 0kts
27-Dec-17 16:28 35.429371 -119.046101 226 493ft 0kts
27-Dec-17 16:29 35.429371 -119.046101 226 493ft 0kts
27-Dec-17 16:30 35.429371 -119.046101 226 493ft 0kts
27-Dec-17 16:31 35.429371 -119.046101 226 493ft 0kts
27-Dec-17 16:32 35.429371 -119.046101 226 493ft 0kts
27-Dec-17 16:33 35.429371 -119.046101 226 493ft 0kts
27-Dec-17 16:34 35.429371 -119.046101 226 493ft 0kts
27-Dec-17 16:35 35.429371 -119.046101 226 493ft 0kts
27-Dec-17 16:36 35.429371 -119.046101 226 493ft 0kts
27-Dec-17 16:37 35.428487 -119.045864 175 490ft 13kts
27-Dec-17 16:38 35.425619 -119.044792 251 477ft 0kts
27-Dec-17 16:39 35.425619 -119.044792 251 477ft 0kts
27-Dec-17 16:40 35.425619 -119.044792 251 477ft 0kts
27-Dec-17 16:41 35.426496 -119.047322 310 476ft 58kts
27-Dec-17 16:42 35.441194 -119.064049 336 1593ft 90kts
27-Dec-17 16:43 35.457584 -119.045722 113 2961ft 110kts
27-Dec-17 16:44 35.432595 -119.022594 141 4501ft 95kts
27-Dec-17 16:45 35.416757 -119.002228 127 5392ft 93kts
27-Dec-17 16:46 35.404600 -118.979869 120 6385ft 89kts
27-Dec-17 16:47 35.390727 -118.949929 118 7267ft 96kts
27-Dec-17 16:48 35.375770 -118.914929 117 7508ft 136kts
27-Dec-17 16:49 35.358064 -118.872329 116 7506ft 144kts
27-Dec-17 16:50 35.339959 -118.828335 116 7505ft 145kts
27-Dec-17 16:51 35.321719 -118.783963 116 7505ft 145kts
27-Dec-17 16:52 35.303520 -118.739730 116 7505ft 146kts
27-Dec-17 16:53 35.285279 -118.695449 116 7505ft 146kts
27-Dec-17 16:54 35.267059 -118.651186 116 7505ft 146kts
27-Dec-17 16:55 35.248825 -118.607019 116 7505ft 146kts
27-Dec-17 16:56 35.230980 -118.563879 116 7505ft 146kts
27-Dec-17 16:57 35.212109 -118.518301 116 7313ft 152kts
27-Dec-17 16:58 35.193411 -118.473210 116 7313ft 147kts
27-Dec-17 16:59 35.174982 -118.428829 116 7313ft 146kts
27-Dec-17 17:00 35.156581 -118.384571 116 7313ft 146kts
27-Dec-17 17:01 35.138888 -118.342074 117 7313ft 146kts
27-Dec-17 17:02 35.120486 -118.297918 117 7313ft 146kts
27-Dec-17 17:03 35.109044 -118.252307 104 6380ft 137kts
27-Dec-17 17:04 35.102646 -118.210098 102 4875ft 121kts
27-Dec-17 17:05 35.091333 -118.174689 130 4235ft 75kts
27-Dec-17 17:06 35.074602 -118.153071 129 3773ft 92kts
27-Dec-17 17:07 35.066823 -118.125940 110 3593ft 83kts
27-Dec-17 17:08 35.057141 -118.100728 157 3630ft 79kts
27-Dec-17 17:09 35.040004 -118.111898 236 3439ft 68kts
27-Dec-17 17:10 35.046863 -118.132704 325 2974ft 73kts
27-Dec-17 17:11 35.059070 -118.147884 276 2744ft 48kts
27-Dec-17 17:12 35.058611 -118.150022 137 2746ft 0kts
27-Dec-17 17:13 35.057474 -118.149202 172 2742ft 0kts
27-Dec-17 17:14 35.057474 -118.149202 172 2742ft 0kts
27-Dec-17 17:21 35.057474 -118.149202 172 2742ft 0kts

Navigation Log

Ident Type
1. KBFL Airport
2. KMHV Airport